Air Navigation Services of Czech Republic
Airport: LKLN Updated:  25.03.2019 21:26:06  UTC
 METAR LKLN 25.03. 21:30 ...
METAR LKLN 252130Z AUTO 28004KT 240V320 9999 SCT048 BKN074 02/00 Q1022=